Time;durP1;ratioP1;P1;durP2;ratioP2;P2;SDS_P1;SDS_P2;PMS_P1;PMS_P2;Temp;Humidity;BMP_temperature;BMP_pressure;BME280_temperature;BME280_humidity;BME280_pressure;Samples;Min_cycle;Max_cycle;Signal;HPM_P1;HPM_P2
2023/03/21 00:01:03;;;;;;;36.83;28.83;;;7.90;99.90;;;7.08;91.04;101061.09;5055811;28;20678;-72
2023/03/21 00:03:36;;;;;;;40.90;28.80;;;7.90;99.90;;;7.12;91.44;101054.50;5056136;28;20194;-72
2023/03/21 00:06:13;;;;;;;39.07;28.20;;;7.90;99.90;;;7.16;91.32;101043.63;5055994;28;20288;-72
2023/03/21 00:08:45;;;;;;;36.23;28.50;;;7.90;99.90;;;7.22;90.90;101043.94;5055939;28;20194;-72
2023/03/21 00:11:17;;;;;;;36.83;28.73;;;8.00;99.90;;;7.23;90.36;101045.59;5055747;28;20576;-72
2023/03/21 00:13:52;;;;;;;38.70;28.17;;;8.00;99.90;;;7.20;90.54;101042.34;5055412;28;20186;-72
2023/03/21 00:16:25;;;;;;;40.13;29.00;;;7.90;99.90;;;7.21;90.40;101036.91;5055373;28;20233;-72
2023/03/21 00:19:05;;;;;;;34.60;27.17;;;7.90;99.90;;;7.20;90.70;101039.69;5055593;28;20194;-72
2023/03/21 00:21:37;;;;;;;36.00;27.67;;;7.90;99.90;;;7.21;90.43;101036.91;5055660;28;20198;-72
2023/03/21 00:24:26;;;;;;;40.93;28.40;;;8.00;99.90;;;7.14;90.94;101035.75;5055516;28;20597;-72
2023/03/21 00:26:58;;;;;;;43.50;29.60;;;7.90;99.90;;;7.10;90.97;101037.81;5055229;28;20646;-72
2023/03/21 00:29:52;;;;;;;33.60;26.73;;;7.90;99.90;;;7.16;90.90;101036.44;5055615;28;20288;-72
2023/03/21 00:32:24;;;;;;;43.13;29.33;;;7.90;99.90;;;7.21;91.11;101031.59;5055469;28;20192;-72
2023/03/21 00:34:56;;;;;;;37.77;27.50;;;8.00;99.90;;;7.19;91.01;101027.38;5055290;28;20238;-72
2023/03/21 00:37:48;;;;;;;35.83;28.30;;;7.90;99.90;;;7.14;90.58;101025.09;5054913;28;20268;-72
2023/03/21 00:40:19;;;;;;;33.97;27.37;;;7.90;99.90;;;7.06;91.14;101023.09;5055232;28;20289;-72
2023/03/21 00:43:03;;;;;;;35.73;28.60;;;7.80;99.90;;;7.11;91.06;101020.88;5055242;28;20187;-72
2023/03/21 00:45:36;;;;;;;39.10;29.67;;;7.90;99.90;;;7.13;91.28;101023.41;5055181;28;20233;-72
2023/03/21 00:48:08;;;;;;;38.23;28.63;;;7.90;99.90;;;7.13;91.20;101023.41;5055179;28;20290;-72
2023/03/21 00:50:44;;;;;;;40.50;30.13;;;7.90;99.90;;;7.15;91.13;101016.16;5055094;28;20191;-72
2023/03/21 00:53:16;;;;;;;37.77;28.83;;;7.90;99.90;;;7.21;91.41;101014.75;5055058;28;20186;-72
2023/03/21 00:55:48;;;;;;;36.30;29.07;;;7.90;99.90;;;7.16;90.95;101011.66;5054934;28;20236;-72
2023/03/21 00:58:20;;;;;;;37.53;28.57;;;7.90;99.90;;;7.14;90.72;101009.13;5054643;28;20561;-72
2023/03/21 01:00:54;;;;;;;38.30;29.00;;;7.90;99.90;;;7.07;91.08;101007.97;5054487;28;20554;-72
2023/03/21 01:03:27;;;;;;;38.27;29.67;;;7.80;99.90;;;7.05;91.62;101007.25;5054897;28;20191;-72
2023/03/21 01:06:03;;;;;;;42.43;29.00;;;7.80;99.90;;;7.07;91.60;101002.63;5054697;28;20229;-72
2023/03/21 01:08:39;;;;;;;39.73;30.07;;;7.80;99.90;;;7.08;91.82;101001.66;5054404;28;20197;-72
2023/03/21 01:11:27;;;;;;;40.00;30.40;;;7.90;99.90;;;7.08;91.17;101001.66;5054688;28;20244;-72
2023/03/21 01:13:59;;;;;;;40.13;30.47;;;7.90;99.90;;;7.06;91.64;100995.63;5054640;28;20248;-72
2023/03/21 01:16:53;;;;;;;39.17;29.10;;;7.80;99.90;;;7.10;92.05;100999.69;5054120;28;20301;-72
2023/03/21 01:19:28;;;;;;;40.00;30.53;;;7.80;99.90;;;7.09;91.72;100998.00;5055083;28;20190;-72
2023/03/21 01:22:19;;;;;;;43.20;30.80;;;7.90;99.90;;;7.06;91.96;100995.63;5054467;28;20206;-72
2023/03/21 01:24:51;;;;;;;40.30;29.87;;;7.80;99.90;;;7.06;92.05;100990.28;5053597;28;20229;-72
2023/03/21 01:27:33;;;;;;;43.27;31.13;;;7.80;99.90;;;7.09;92.62;100992.69;5054365;28;20198;-72
2023/03/21 01:30:06;;;;;;;38.83;29.67;;;7.90;99.90;;;7.13;92.77;100986.13;5054213;28;20209;-72
2023/03/21 01:32:51;;;;;;;42.73;32.07;;;7.90;99.90;;;7.07;92.69;100986.66;5054302;28;20197;-72
2023/03/21 01:35:23;;;;;;;41.47;29.90;;;7.80;99.90;;;7.06;92.54;100985.81;5054166;28;20222;-72
2023/03/21 01:37:55;;;;;;;43.03;31.50;;;7.80;99.90;;;7.06;92.77;100980.47;5054171;28;20197;-72
2023/03/21 01:40:30;;;;;;;41.00;31.13;;;7.80;99.90;;;7.09;93.07;100982.03;5054062;28;20214;-72
2023/03/21 01:43:02;;;;;;;40.70;29.20;;;7.80;99.90;;;7.06;93.47;100984.97;5054085;28;20255;-72
2023/03/21 01:46:19;;;;;;;38.53;30.53;;;7.30;99.90;;;7.04;93.04;100982.44;5053668;28;20230;-72
2023/03/21 01:48:58;;;;;;;44.33;31.10;;;7.80;99.90;;;7.04;93.47;100978.94;5053965;28;20226;-72
2023/03/21 01:51:34;;;;;;;42.57;32.10;;;7.80;99.90;;;7.03;93.91;100985.22;5053908;28;20197;-72
2023/03/21 01:54:08;;;;;;;43.07;31.47;;;7.80;99.90;;;7.05;93.69;100986.78;5053821;28;20190;-72
2023/03/21 01:56:44;;;;;;;42.07;31.60;;;7.80;99.90;;;7.07;93.98;100981.34;5053846;28;20191;-72
2023/03/21 01:59:25;;;;;;;41.20;31.63;;;7.80;99.90;;;7.04;93.83;100974.47;5053810;28;20194;-72
2023/03/21 02:02:00;;;;;;;41.50;31.47;;;7.80;99.90;;;7.03;93.93;100972.78;5053696;28;20552;-72
2023/03/21 02:04:35;;;;;;;42.03;31.90;;;7.80;99.90;;;7.00;94.40;100966.88;5053625;28;20245;-72
2023/03/21 02:07:13;;;;;;;39.63;30.67;;;7.80;99.90;;;7.00;94.50;100970.38;5053415;28;20251;-72
2023/03/21 02:09:51;;;;;;;43.97;31.27;;;7.80;99.90;;;6.98;94.88;100971.50;5054184;28;20194;-72
2023/03/21 02:12:24;;;;;;;42.60;33.53;;;7.70;99.90;;;7.01;94.84;100968.56;5053597;28;20196;-72
2023/03/21 02:14:59;;;;;;;40.93;31.50;;;7.80;99.90;;;7.03;94.58;100961.28;5053467;28;20225;-72
2023/03/21 02:17:39;;;;;;;45.50;32.27;;;7.80;99.90;;;7.05;94.49;100965.47;5053200;28;20533;-72
2023/03/21 02:20:51;;;;;;;38.30;31.10;;;7.80;99.90;;;7.12;94.45;100960.50;5053179;28;20193;-72
2023/03/21 02:23:56;;;;;;;40.20;30.67;;;7.90;99.90;;;7.07;94.24;100954.72;5053488;28;20197;-72
2023/03/21 02:27:02;;;;;;;40.47;30.40;;;7.80;99.90;;;7.06;94.29;100953.88;5053161;28;20677;-72
2023/03/21 02:30:26;;;;;;;41.60;29.83;;;7.80;99.90;;;7.05;94.52;100951.34;5053363;28;20598;-72
2023/03/21 02:33:54;;;;;;;38.43;29.97;;;7.80;99.90;;;7.08;94.77;100948.41;5053999;28;20206;-72
2023/03/21 02:36:46;;;;;;;42.07;31.97;;;7.80;99.90;;;7.07;94.65;100939.59;5053161;28;20751;-72
2023/03/21 02:39:28;;;;;;;40.20;30.57;;;7.80;99.90;;;7.09;94.57;100942.09;5053223;28;20285;-72
2023/03/21 02:42:12;;;;;;;42.40;31.47;;;7.90;99.90;;;7.10;94.54;100939.31;5053213;28;20210;-72
2023/03/21 02:44:50;;;;;;;44.67;32.00;;;7.90;99.90;;;7.10;94.71;100933.16;5053154;28;20221;-72
2023/03/21 02:47:28;;;;;;;40.60;31.77;;;7.90;99.90;;;7.10;94.46;100941.97;5053193;28;20194;-72
2023/03/21 02:50:09;;;;;;;42.87;30.10;;;7.90;99.90;;;7.11;94.40;100938.34;5053184;28;20190;-72
2023/03/21 02:52:45;;;;;;;38.77;29.87;;;7.90;99.90;;;7.14;94.17;100934.56;5053134;28;20247;-72
2023/03/21 02:55:24;;;;;;;36.60;29.40;;;7.90;99.90;;;7.17;94.17;100933.44;5053071;28;20230;-72
2023/03/21 02:57:59;;;;;;;39.50;28.30;;;7.90;99.90;;;7.19;93.77;100926.19;5053065;28;20194;-72
2023/03/21 03:00:43;;;;;;;38.30;28.20;;;7.90;99.90;;;7.18;93.77;100930.66;5052962;28;20217;-72
2023/03/21 03:03:16;;;;;;;35.77;26.77;;;8.00;99.90;;;7.22;93.61;100932.09;5053044;28;20202;-72
2023/03/21 03:06:15;;;;;;;38.27;27.77;;;8.00;99.90;;;7.22;93.40;100928.59;5052974;28;20321;-72
2023/03/21 03:09:05;;;;;;;40.37;27.80;;;8.00;99.90;;;7.20;93.11;100923.38;5053048;28;20214;-72
2023/03/21 03:11:41;;;;;;;33.87;26.67;;;8.00;99.90;;;7.21;93.18;100919.75;5052680;28;20600;-72
2023/03/21 03:14:50;;;;;;;37.43;27.77;;;8.00;99.90;;;7.22;92.94;100920.59;5052893;28;20209;-72
2023/03/21 03:17:46;;;;;;;40.50;27.17;;;8.00;99.90;;;7.22;92.96;100921.44;5052881;28;20202;-72
2023/03/21 03:20:31;;;;;;;36.80;27.73;;;8.00;99.90;;;7.23;92.82;100917.78;5052941;28;20668;-72
2023/03/21 03:23:13;;;;;;;34.40;27.07;;;8.00;99.90;;;7.23;93.18;100915.13;5052911;28;20567;-72
2023/03/21 03:25:55;;;;;;;36.00;26.77;;;8.00;99.90;;;7.25;92.74;100918.50;5052662;28;20229;-72
2023/03/21 03:28:35;;;;;;;33.87;26.43;;;8.10;99.90;;;7.26;92.82;100917.50;5052954;28;20194;-73
2023/03/21 03:31:10;;;;;;;35.67;25.60;;;8.00;99.90;;;7.29;92.84;100913.75;5052684;28;20190;-73
2023/03/21 03:33:47;;;;;;;36.63;26.43;;;8.10;99.90;;;7.27;92.99;100913.88;5052644;28;20561;-73
2023/03/21 03:36:24;;;;;;;39.47;27.90;;;8.00;99.90;;;7.26;92.80;100922.84;5052805;28;20283;-73
2023/03/21 03:39:07;;;;;;;35.07;25.80;;;8.00;99.90;;;7.26;92.84;100906.84;5052900;28;20194;-73
2023/03/21 03:41:50;;;;;;;33.00;25.70;;;8.00;99.90;;;7.28;92.94;100923.56;5052470;28;20671;-73
2023/03/21 03:44:43;;;;;;;39.53;26.73;;;8.10;99.90;;;7.27;92.68;100911.22;5052275;28;20303;-73
2023/03/21 03:47:22;;;;;;;37.77;26.77;;;8.10;99.90;;;7.27;92.88;100919.19;5053389;28;20244;-73
2023/03/21 03:50:18;;;;;;;37.93;26.90;;;8.00;99.90;;;7.29;92.62;100913.75;5056423;28;20190;-73
2023/03/21 03:52:56;;;;;;;33.50;25.53;;;8.10;99.90;;;7.30;92.82;100921.59;5056348;28;20203;-73
2023/03/21 03:55:35;;;;;;;36.67;25.57;;;8.10;99.90;;;7.31;92.70;100915.28;5056209;28;20237;-73
2023/03/21 03:58:08;;;;;;;39.77;26.20;;;8.10;99.90;;;7.30;93.00;100916.25;5055961;28;20194;-73
2023/03/21 04:00:53;;;;;;;32.73;25.97;;;8.10;99.90;;;7.31;92.89;100909.13;5056059;28;20722;-73
2023/03/21 04:03:24;;;;;;;36.77;26.73;;;8.10;99.90;;;7.30;92.77;100907.44;5055872;28;20190;-73
2023/03/21 04:05:56;;;;;;;37.60;25.33;;;8.10;99.90;;;7.30;92.58;100908.28;5056056;28;20237;-73
2023/03/21 04:08:28;;;;;;;34.30;25.03;;;8.10;99.90;;;7.32;92.82;100913.47;5055835;28;20194;-73
2023/03/21 04:11:01;;;;;;;36.93;26.00;;;8.10;99.90;;;7.31;92.45;100912.63;5055707;28;20638;-73
2023/03/21 04:13:35;;;;;;;39.17;26.40;;;8.10;99.90;;;7.32;92.79;100910.81;5055714;28;20679;-73
2023/03/21 04:16:07;;;;;;;34.03;25.83;;;8.10;99.90;;;7.33;92.32;100913.31;5055671;28;20241;-73
2023/03/21 04:18:39;;;;;;;48.23;27.80;;;8.10;99.90;;;7.33;92.69;100916.00;5055914;28;20252;-73
2023/03/21 04:21:14;;;;;;;34.33;24.80;;;8.10;99.90;;;7.34;92.47;100909.69;5055742;28;20245;-73
2023/03/21 04:23:46;;;;;;;37.30;25.10;;;8.10;99.90;;;7.33;92.45;100908.00;5055730;28;20186;-73
2023/03/21 04:26:19;;;;;;;31.77;24.60;;;8.10;99.90;;;7.35;92.37;100911.38;5055345;28;20640;-73
2023/03/21 04:28:53;;;;;;;34.97;25.17;;;8.10;99.90;;;7.37;92.67;100908.56;5055617;28;20201;-73
2023/03/21 04:31:26;;;;;;;32.90;24.70;;;8.10;99.90;;;7.34;92.83;100908.84;5055682;28;20558;-73
2023/03/21 04:33:58;;;;;;;32.80;26.00;;;8.20;99.90;;;7.33;93.03;100913.31;5055259;28;20190;-73
2023/03/21 04:36:37;;;;;;;34.10;26.13;;;8.10;99.90;;;7.33;93.97;100907.19;5055523;28;20277;-73
2023/03/21 04:39:11;;;;;;;36.17;26.73;;;8.10;99.90;;;7.33;93.64;100908.00;5055470;28;20220;-73
2023/03/21 04:41:45;;;;;;;35.23;26.40;;;8.10;99.90;;;7.33;93.69;100907.19;5055326;28;20221;-73
2023/03/21 04:44:20;;;;;;;36.57;27.00;;;8.10;99.90;;;7.31;93.91;100904.66;5055312;28;20194;-73
2023/03/21 04:46:52;;;;;;;35.40;26.63;;;8.10;99.90;;;7.30;93.98;100902.94;5055331;28;20194;-73
2023/03/21 04:49:24;;;;;;;32.43;26.13;;;8.10;99.90;;;7.33;93.91;100900.00;5055272;28;20194;-73
2023/03/21 04:51:56;;;;;;;33.60;25.13;;;8.10;99.90;;;7.33;94.02;100908.00;5055211;28;20190;-73
2023/03/21 04:54:28;;;;;;;35.97;27.10;;;8.10;99.90;;;7.32;93.80;100894.84;5055141;28;20230;-73
2023/03/21 04:56:59;;;;;;;34.90;25.70;;;8.10;99.90;;;7.30;94.20;100902.94;5055102;28;20187;-73
2023/03/21 04:59:33;;;;;;;39.13;27.03;;;8.10;99.90;;;7.30;94.10;100900.28;5053915;28;20191;-73
2023/03/21 05:02:05;;;;;;;36.67;27.07;;;8.10;99.90;;;7.32;93.83;100898.34;5054586;28;20236;-73
2023/03/21 05:04:37;;;;;;;35.17;26.33;;;8.10;99.90;;;7.30;94.18;100897.63;5054876;28;20226;-73
2023/03/21 05:07:09;;;;;;;36.60;27.87;;;8.10;99.90;;;7.30;94.40;100902.94;5054955;28;20197;-73
2023/03/21 05:09:41;;;;;;;39.10;28.60;;;8.10;99.90;;;7.31;94.25;100901.97;5054581;28;20708;-73
2023/03/21 05:12:12;;;;;;;31.77;25.97;;;8.10;99.90;;;7.32;94.05;100895.69;5054847;28;20186;-73
2023/03/21 05:14:46;;;;;;;42.47;29.17;;;8.10;99.90;;;7.30;94.35;100897.63;5054743;28;20229;-73
2023/03/21 05:17:22;;;;;;;38.77;27.97;;;8.10;99.90;;;7.31;94.66;100898.47;5054772;28;20198;-73
2023/03/21 05:19:55;;;;;;;38.33;27.67;;;8.10;99.90;;;7.30;94.89;100897.63;5054694;28;20191;-73
2023/03/21 05:22:27;;;;;;;38.47;26.50;;;8.10;99.90;;;7.30;94.89;100897.63;5054268;28;20679;-73
2023/03/21 05:24:59;;;;;;;34.57;27.03;;;8.10;99.90;;;7.32;94.47;100897.50;5054224;28;20596;-73
2023/03/21 05:27:34;;;;;;;36.53;26.97;;;8.10;99.90;;;7.31;94.31;100894.00;5054552;28;20269;-73
2023/03/21 05:30:16;;;;;;;33.87;25.90;;;8.10;99.90;;;7.31;94.78;100895.81;5054516;28;20206;-73
2023/03/21 05:32:48;;;;;;;34.20;26.67;;;8.10;99.90;;;7.33;94.68;100900.00;5054467;28;20186;-74
2023/03/21 05:35:20;;;;;;;38.33;26.83;;;8.10;99.90;;;7.31;94.53;100899.31;5054200;28;20634;-72
2023/03/21 05:37:52;;;;;;;39.90;27.67;;;8.10;99.90;;;7.33;94.60;100896.53;5054075;28;20639;-73
2023/03/21 05:40:24;;;;;;;36.27;27.27;;;8.10;99.90;;;7.33;94.48;100894.69;5054301;28;20265;-74
2023/03/21 05:42:56;;;;;;;33.17;26.47;;;8.10;99.90;;;7.35;94.40;100890.09;5054202;28;20210;-74
2023/03/21 05:45:29;;;;;;;38.17;27.70;;;8.10;99.90;;;7.35;94.25;100890.09;5053787;28;20717;-73
2023/03/21 05:48:01;;;;;;;35.10;26.60;;;8.10;99.90;;;7.38;94.01;100889.81;5054173;28;20198;-73
2023/03/21 05:50:33;;;;;;;33.37;26.60;;;8.20;99.90;;;7.38;93.63;100881.81;5054667;28;20182;-73
2023/03/21 05:53:05;;;;;;;36.43;26.33;;;8.20;99.90;;;7.40;93.74;100892.31;5054032;28;20190;-73
2023/03/21 05:55:38;;;;;;;32.30;26.97;;;8.20;99.90;;;7.41;93.94;100886.03;5053990;28;20225;-74
2023/03/21 05:58:10;;;;;;;32.90;25.70;;;8.20;99.90;;;7.43;93.81;100892.06;5054062;28;20194;-74
2023/03/21 06:00:43;;;;;;;32.57;25.37;;;8.20;99.90;;;7.45;93.39;100890.09;5053684;28;20670;-73
2023/03/21 06:03:15;;;;;;;33.33;26.00;;;8.20;99.90;;;7.45;93.26;100898.94;5053863;28;20214;-73
2023/03/21 06:05:47;;;;;;;31.23;24.97;;;8.20;99.90;;;7.46;93.18;100892.66;5053512;28;20305;-73
2023/03/21 06:08:19;;;;;;;34.70;26.40;;;8.20;99.90;;;7.48;93.18;100889.81;5053827;28;20198;-73
2023/03/21 06:10:51;;;;;;;32.57;25.23;;;8.20;99.90;;;7.49;92.93;100884.38;5053174;28;20627;-73
2023/03/21 06:13:23;;;;;;;35.97;27.27;;;8.30;99.90;;;7.51;92.98;100893.06;5053748;28;20182;-73
2023/03/21 06:15:56;;;;;;;37.33;26.33;;;8.30;99.90;;;7.51;92.88;100885.06;5053364;28;20594;-73
2023/03/21 06:18:28;;;;;;;37.67;26.70;;;8.30;99.90;;;7.53;92.98;100893.75;5053454;28;20639;-73
2023/03/21 06:21:00;;;;;;;32.80;26.17;;;8.30;99.90;;;7.54;92.43;100889.28;5053645;28;20190;-73
2023/03/21 06:23:31;;;;;;;36.83;26.90;;;8.30;99.90;;;7.54;92.83;100897.25;5053539;28;20214;-73
2023/03/21 06:26:04;;;;;;;35.40;27.00;;;8.30;99.90;;;7.55;93.12;100901.63;5053215;28;20634;-73
2023/03/21 06:28:36;;;;;;;37.70;26.83;;;8.30;99.90;;;7.56;92.84;100895.31;5053533;28;20197;-73
2023/03/21 06:31:10;;;;;;;35.40;26.17;;;8.30;99.90;;;7.56;92.73;100892.66;5053554;28;20190;-73
2023/03/21 06:33:42;;;;;;;34.63;25.83;;;8.30;99.90;;;7.57;92.69;100895.16;5053489;28;20201;-73
2023/03/21 06:36:15;;;;;;;30.47;23.97;;;8.30;99.90;;;7.60;92.52;100889.56;5053393;28;20230;-74
2023/03/21 06:38:47;;;;;;;35.57;24.07;;;8.40;99.90;;;7.61;92.25;100899.25;5053449;28;20195;-74
2023/03/21 06:41:19;;;;;;;35.80;24.93;;;8.40;99.90;;;7.63;91.73;100902.63;5053442;28;20186;-73
2023/03/21 06:43:51;;;;;;;31.33;24.63;;;8.40;99.90;;;7.64;91.69;100900.78;5053326;28;20237;-73
2023/03/21 06:46:24;;;;;;;36.80;25.10;;;8.40;99.90;;;7.65;91.42;100897.16;5053317;28;20249;-73
2023/03/21 06:48:56;;;;;;;34.83;25.13;;;8.40;99.90;;;7.66;91.69;100896.19;5053419;28;20217;-73
2023/03/21 06:51:28;;;;;;;34.43;24.40;;;8.40;99.90;;;7.68;91.22;100901.34;5053336;28;20206;-72
2023/03/21 06:54:00;;;;;;;33.47;24.83;;;8.40;99.90;;;7.69;91.40;100903.91;5053361;28;20190;-73
2023/03/21 06:56:32;;;;;;;31.73;24.10;;;8.50;99.90;;;7.71;90.83;100903.75;5053295;28;20198;-73
2023/03/21 06:59:04;;;;;;;33.33;24.83;;;8.50;99.90;;;7.71;91.52;100907.25;5053291;28;20197;-73
2023/03/21 07:01:37;;;;;;;34.23;24.43;;;8.50;99.90;;;7.71;91.51;100901.06;5053183;28;20190;-73
2023/03/21 07:04:09;;;;;;;34.17;24.67;;;8.50;99.90;;;7.72;91.11;100902.78;5053111;28;20217;-72
2023/03/21 07:06:41;;;;;;;34.50;24.90;;;8.40;99.90;;;7.72;91.21;100905.44;5053184;28;20199;-74
2023/03/21 07:09:13;;;;;;;32.03;25.50;;;8.50;99.90;;;7.75;91.20;100907.81;5053156;28;20256;-73
2023/03/21 07:11:45;;;;;;;35.40;25.30;;;8.50;99.90;;;7.75;90.83;100907.81;5053108;28;20216;-73
2023/03/21 07:14:17;;;;;;;35.33;26.27;;;8.50;99.90;;;7.77;91.44;100905.88;5053030;28;20194;-73
2023/03/21 07:16:50;;;;;;;31.70;24.33;;;8.50;99.90;;;7.80;90.85;100910.94;5052755;28;20221;-73
2023/03/21 07:19:22;;;;;;;31.70;24.07;;;8.60;99.90;;;7.80;90.34;100911.78;5053093;28;20195;-73
2023/03/21 07:21:53;;;;;;;33.57;24.13;;;8.60;99.90;;;7.84;89.86;100909.69;5053088;28;20195;-73
2023/03/21 07:24:28;;;;;;;34.70;24.90;;;8.60;99.90;;;7.84;89.69;100912.34;5056703;28;20257;-73
2023/03/21 07:27:00;;;;;;;31.93;23.17;;;8.60;99.90;;;7.86;90.00;100907.69;5056841;28;20190;-73
2023/03/21 07:29:32;;;;;;;33.13;22.60;;;8.60;99.90;;;7.87;90.14;100906.72;5056837;28;20194;-73
2023/03/21 07:32:05;;;;;;;31.80;23.30;;;8.60;99.90;;;7.87;89.97;100906.72;5056792;28;20210;-72
2023/03/21 07:34:37;;;;;;;34.30;21.97;;;8.60;99.90;;;7.91;89.51;100913.47;5056357;28;20649;-71
2023/03/21 07:37:09;;;;;;;30.90;22.77;;;8.70;99.90;;;7.94;89.04;100907.88;5056672;28;20194;-71
2023/03/21 07:39:43;;;;;;;29.00;20.77;;;8.70;99.90;;;7.96;88.83;100909.41;5056676;28;20190;-71
2023/03/21 07:42:15;;;;;;;31.77;21.17;;;8.70;99.90;;;7.97;89.09;100911.09;5056563;28;20189;-71
2023/03/21 07:44:47;;;;;;;29.63;21.20;;;8.70;99.90;;;7.97;89.01;100896.91;5056387;28;20234;-71
2023/03/21 07:47:20;;;;;;;29.77;19.53;;;8.70;99.90;;;8.00;88.63;100891.31;5056156;28;20596;-76
2023/03/21 07:49:52;;;;;;;31.00;20.43;;;8.80;99.90;;;8.04;88.54;100890.03;5056305;28;20191;-78
2023/03/21 07:52:24;;;;;;;27.40;20.37;;;8.80;99.90;;;8.05;88.49;100889.88;5056718;28;20194;-78
2023/03/21 07:54:56;;;;;;;28.07;19.80;;;8.80;99.90;;;8.07;88.27;100892.44;5056540;28;20222;-78
2023/03/21 07:57:28;;;;;;;27.20;19.47;;;8.80;99.90;;;8.12;87.58;100890.16;5056267;28;20669;-78
2023/03/21 08:00:00;;;;;;;29.03;19.03;;;8.90;99.90;;;8.15;87.74;100890.72;5056527;28;20248;-78
2023/03/21 08:02:33;;;;;;;29.07;20.57;;;8.90;99.90;;;8.17;88.33;100893.25;5056533;28;20186;-78
2023/03/21 08:05:05;;;;;;;28.90;19.27;;;8.90;99.90;;;8.25;88.14;100885.41;5056391;28;20263;-78
2023/03/21 08:07:37;;;;;;;29.97;20.53;;;9.00;99.90;;;8.30;87.63;100888.50;5056374;28;20269;-78
2023/03/21 08:10:11;;;;;;;27.00;18.50;;;9.00;99.90;;;8.33;87.39;100888.22;5056235;28;20193;-78
2023/03/21 08:12:43;;;;;;;26.83;18.97;;;9.10;99.90;;;8.39;87.13;100890.31;5056245;28;20194;-78
2023/03/21 08:15:16;;;;;;;28.27;19.93;;;9.10;99.90;;;8.44;87.85;100885.41;5056455;28;20248;-78
2023/03/21 08:17:49;;;;;;;27.33;18.77;;;9.20;99.90;;;8.47;87.93;100885.13;5056290;28;20202;-78
2023/03/21 08:20:23;;;;;;;31.47;18.10;;;9.20;99.90;;;8.50;87.87;100895.50;5056187;28;20191;-78
2023/03/21 08:22:55;;;;;;;27.60;18.00;;;9.30;99.90;;;8.58;87.28;100887.63;5056116;28;20197;-78
2023/03/21 08:25:27;;;;;;;31.07;17.10;;;9.30;99.90;;;8.64;86.90;100892.38;5055632;28;20732;-66
2023/03/21 08:27:59;;;;;;;28.80;17.57;;;9.30;99.90;;;8.73;86.12;100890.69;5055676;28;20195;-64
2023/03/21 08:30:32;;;;;;;24.47;17.00;;;9.50;99.90;;;8.79;85.85;100894.59;5055614;28;20205;-74
2023/03/21 08:33:06;;;;;;;29.90;18.23;;;9.50;99.90;;;8.78;85.67;100896.41;5055356;28;20222;-74
2023/03/21 08:35:38;;;;;;;29.17;18.10;;;9.50;99.90;;;8.80;85.85;100896.28;5055471;28;20226;-74
2023/03/21 08:38:12;;;;;;;25.60;17.30;;;9.50;99.90;;;8.88;84.79;100899.91;5055244;28;20643;-74
2023/03/21 08:40:44;;;;;;;23.93;17.87;;;9.60;99.90;;;8.90;85.05;100897.09;5055523;28;20213;-74
2023/03/21 08:43:16;;;;;;;28.40;17.80;;;9.60;99.90;;;8.94;84.08;100893.97;5055352;28;20245;-74
2023/03/21 08:45:47;;;;;;;28.87;17.63;;;9.70;99.90;;;8.97;84.84;100896.34;5055273;28;20230;-74
2023/03/21 08:48:20;;;;;;;27.27;17.63;;;9.70;99.90;;;8.95;84.60;100894.81;5055039;28;20194;-74
2023/03/21 08:50:52;;;;;;;27.50;16.70;;;9.70;99.90;;;8.95;84.59;100895.66;5055275;28;20218;-74
2023/03/21 08:53:24;;;;;;;28.40;17.20;;;9.70;99.90;;;8.97;84.94;100892.84;5055279;28;20194;-74
2023/03/21 08:55:56;;;;;;;25.47;16.67;;;9.70;99.90;;;8.99;83.68;100889.03;5055088;28;20237;-73
2023/03/21 08:58:28;;;;;;;25.27;16.27;;;9.70;99.90;;;8.98;84.32;100891.84;5055123;28;20199;-74
2023/03/21 09:01:00;;;;;;;28.87;18.50;;;9.70;99.90;;;9.01;84.77;100899.56;5055142;28;20191;-74
2023/03/21 09:03:33;;;;;;;27.13;18.63;;;9.70;99.90;;;9.01;84.58;100903.09;5054966;28;20193;-74
2023/03/21 09:06:05;;;;;;;26.17;17.93;;;9.70;99.90;;;9.01;84.46;100894.22;5054476;28;20237;-74
2023/03/21 09:08:37;;;;;;;26.33;17.63;;;9.70;99.90;;;9.03;84.38;100897.59;5054855;28;20209;-74
2023/03/21 09:11:12;;;;;;;28.53;17.03;;;9.70;99.90;;;9.07;83.70;100889.16;5053532;28;20186;-73
2023/03/21 09:13:44;;;;;;;30.07;16.67;;;9.80;99.90;;;9.05;84.12;100887.59;5054817;28;20197;-75
2023/03/21 09:16:16;;;;;;;24.93;17.10;;;9.80;99.90;;;9.05;83.70;100888.44;5054408;28;20234;-75
2023/03/21 09:18:54;;;;;;;26.93;15.93;;;9.80;99.90;;;9.11;83.43;100881.66;5054486;28;20560;-74
2023/03/21 09:21:28;;;;;;;29.97;17.57;;;9.80;99.90;;;9.15;83.91;100883.06;5054701;28;20197;-74
2023/03/21 09:24:01;;;;;;;24.70;17.00;;;9.80;99.90;;;9.19;84.28;100876.44;5054644;28;20217;-74
2023/03/21 09:26:33;;;;;;;29.97;17.33;;;9.90;99.90;;;9.22;83.95;100886.81;5054663;28;20194;-74
2023/03/21 09:29:06;;;;;;;29.50;17.40;;;10.00;99.90;;;9.26;83.68;100880.22;5054281;28;20635;-74
2023/03/21 09:31:42;;;;;;;28.63;17.20;;;10.00;99.90;;;9.29;83.97;100885.25;5054576;28;20190;-74
2023/03/21 09:34:17;;;;;;;28.27;17.60;;;10.00;99.90;;;9.32;84.53;100886.78;5054183;28;20673;-74
2023/03/21 09:36:50;;;;;;;30.67;17.00;;;10.00;99.90;;;9.33;84.36;100881.28;5054430;28;20190;-74
2023/03/21 09:39:22;;;;;;;27.83;18.17;;;10.10;99.90;;;9.39;84.10;100888.72;5054386;28;20195;-74
2023/03/21 09:42:29;;;;;;;27.37;16.53;;;10.10;99.90;;;9.44;82.53;100880.25;5054436;28;20190;-74
2023/03/21 09:45:14;;;;;;;25.07;16.83;;;10.10;99.90;;;9.46;82.83;100875.59;5053236;28;20230;-74
2023/03/21 09:47:52;;;;;;;25.60;16.77;;;10.20;99.90;;;9.54;82.23;100884.56;5053917;28;20186;-74
2023/03/21 09:50:32;;;;;;;27.80;17.20;;;10.20;99.90;;;9.59;82.76;100879.59;5054233;28;20563;-75
2023/03/21 09:53:15;;;;;;;25.77;16.40;;;10.30;99.90;;;9.65;82.28;100879.00;5053848;28;20650;-75
2023/03/21 09:55:52;;;;;;;25.77;17.27;;;10.30;99.90;;;9.75;80.67;100867.38;5054011;28;20237;-74
2023/03/21 09:58:32;;;;;;;25.43;16.97;;;10.40;99.90;;;9.85;81.44;100876.19;5053765;28;20650;-74
2023/03/21 10:01:20;;;;;;;24.40;16.03;;;10.50;99.90;;;9.90;80.06;100877.38;5053648;28;20225;-74
2023/03/21 10:03:54;;;;;;;30.40;16.80;;;10.60;99.90;;;9.95;80.63;100884.97;5053590;28;20277;-74
2023/03/21 10:06:30;;;;;;;26.80;15.80;;;10.60;99.90;;;10.06;79.61;100877.56;5053829;28;20226;-74
2023/03/21 10:09:08;;;;;;;23.20;14.77;;;10.70;99.90;;;10.13;79.85;100872.44;5053817;28;20197;-74
2023/03/21 10:11:50;;;;;;;24.97;15.23;;;10.80;99.90;;;10.26;79.54;100875.59;5053740;28;20205;-74
2023/03/21 10:14:28;;;;;;;27.03;15.03;;;10.90;99.90;;;10.25;80.13;100868.53;5053573;28;20190;-74
2023/03/21 10:17:12;;;;;;;23.60;14.23;;;11.00;99.90;;;10.34;79.75;100866.78;5053267;28;20209;-74
2023/03/21 10:19:46;;;;;;;23.33;14.37;;;11.00;99.90;;;10.38;78.47;100866.28;5053623;28;20286;-74
2023/03/21 10:22:20;;;;;;;32.43;15.03;;;11.10;99.90;;;10.36;78.48;100862.94;5053534;28;20194;-74
2023/03/21 10:24:52;;;;;;;23.87;14.23;;;11.10;99.90;;;10.33;78.16;100863.25;5053740;28;20238;-74
2023/03/21 10:27:24;;;;;;;25.63;14.33;;;11.00;99.90;;;10.34;78.73;100858.75;5053592;28;20194;-74
2023/03/21 10:29:56;;;;;;;26.43;14.03;;;11.00;99.90;;;10.36;78.20;100860.28;5053505;28;20197;-74
2023/03/21 10:32:28;;;;;;;27.60;14.27;;;11.00;99.90;;;10.35;77.93;100852.38;5053528;28;20186;-74
2023/03/21 10:35:03;;;;;;;25.50;13.97;;;11.00;99.90;;;10.32;78.41;100864.25;5053412;28;20233;-74
2023/03/21 10:37:36;;;;;;;22.60;13.80;;;11.00;99.90;;;10.37;77.73;100861.97;5053050;28;20563;-74
2023/03/21 10:40:15;;;;;;;29.53;13.83;;;11.00;99.90;;;10.41;77.61;100860.63;5053059;28;20639;-74
2023/03/21 10:42:48;;;;;;;22.73;13.63;;;11.10;99.90;;;10.37;78.01;100851.25;5053000;28;20537;-75
2023/03/21 10:45:24;;;;;;;23.40;13.57;;;11.10;99.90;;;10.43;77.70;100858.66;5052783;28;20236;-76
2023/03/21 10:47:56;;;;;;;25.63;12.73;;;11.10;99.90;;;10.41;77.17;100857.94;5053423;28;20186;-76